createdAt,value
2023-02-26T00:01:37.465Z,96615.78
2023-02-26T00:03:40.518Z,96614.94
2023-02-26T00:05:44.512Z,96611.53
2023-02-26T00:07:47.076Z,96616.72
2023-02-26T00:09:49.632Z,96621.88
2023-02-26T00:11:52.532Z,96621.06
2023-02-26T00:13:56.298Z,96621.94
2023-02-26T00:16:02.082Z,96622.84
2023-02-26T00:18:07.992Z,96614.28
2023-02-26T00:20:12.610Z,96624.63
2023-02-26T00:22:17.452Z,96634.94
2023-02-26T00:24:20.054Z,96628.97
2023-02-26T00:26:24.704Z,96626.44
2023-02-26T00:28:27.884Z,96628.16
2023-02-26T00:30:31.181Z,96628.97
2023-02-26T00:32:35.226Z,96617.84
2023-02-26T00:34:38.490Z,96625.59
2023-02-26T00:36:49.463Z,96626.47
2023-02-26T00:39:06.571Z,96626.50
2023-02-26T00:41:09.703Z,96632.56
2023-02-26T00:43:16.524Z,96621.44
2023-02-26T00:45:20.087Z,96621.44
2023-02-26T00:47:30.397Z,96624.03
2023-02-26T00:49:46.268Z,96625.75
2023-02-26T00:51:52.550Z,96629.22
2023-02-26T00:54:04.744Z,96623.22
2023-02-26T00:56:07.378Z,96630.94
2023-02-26T00:58:09.955Z,96628.31
2023-02-26T01:00:14.045Z,96625.72
2023-02-26T01:02:16.639Z,96618.84
2023-02-26T01:04:22.097Z,96624.84
2023-02-26T01:06:28.734Z,96617.97
2023-02-26T01:08:38.772Z,96625.66
2023-02-26T01:10:43.570Z,96615.38
2023-02-26T01:12:46.677Z,96619.69
2023-02-26T01:14:50.524Z,96616.22
2023-02-26T01:17:00.333Z,96620.47
2023-02-26T01:19:13.486Z,96623.91
2023-02-26T01:21:20.168Z,96616.16
2023-02-26T01:23:26.271Z,96615.31
2023-02-26T01:25:36.114Z,96624.75
2023-02-26T01:27:40.552Z,96618.72
2023-02-26T01:29:43.573Z,96619.59
2023-02-26T01:31:52.098Z,96619.59
2023-02-26T01:34:00.241Z,96619.63
2023-02-26T01:36:08.615Z,96629.97
2023-02-26T01:38:20.679Z,96619.69
2023-02-26T01:41:10.752Z,96622.28
2023-02-26T01:43:20.355Z,96626.56
2023-02-26T01:45:31.548Z,96629.97
2023-02-26T01:47:41.167Z,96627.41
2023-02-26T01:49:44.493Z,96629.97
2023-02-26T01:51:51.958Z,96629.16
2023-02-26T01:53:54.593Z,96636.03
2023-02-26T01:55:59.632Z,96636.03
2023-02-26T01:58:03.750Z,96619.75
2023-02-26T02:00:09.549Z,96624.09
2023-02-26T02:02:15.577Z,96626.69
2023-02-26T02:04:18.393Z,96630.09
2023-02-26T02:06:24.406Z,96624.97
2023-02-26T02:08:27.539Z,96629.38
2023-02-26T02:10:30.677Z,96626.75
2023-02-26T02:12:39.447Z,96632.75
2023-02-26T02:14:57.318Z,96632.81
2023-02-26T02:17:08.093Z,96629.41
2023-02-26T02:19:54.564Z,96638.00
2023-02-26T02:22:16.052Z,96632.03
2023-02-26T02:24:29.273Z,96634.63
2023-02-26T02:27:06.252Z,96640.72
2023-02-26T02:29:33.483Z,96648.44
2023-02-26T02:31:42.332Z,96647.63
2023-02-26T02:33:49.896Z,96643.34
2023-02-26T02:35:58.880Z,96638.22
2023-02-26T02:38:07.537Z,96644.25
2023-02-26T02:40:15.104Z,96647.66
2023-02-26T02:42:27.634Z,96646.00
2023-02-26T02:44:33.474Z,96646.81
2023-02-26T02:46:40.136Z,96655.44
2023-02-26T02:48:47.592Z,96652.91
2023-02-26T02:50:55.213Z,96654.72
2023-02-26T02:53:02.037Z,96652.94
2023-02-26T02:55:09.751Z,96653.84
2023-02-26T02:57:17.048Z,96659.88
2023-02-26T02:59:23.519Z,96662.41
2023-02-26T03:01:28.831Z,96652.13
2023-02-26T03:03:40.305Z,96655.56
2023-02-26T03:05:43.758Z,96659.84
2023-02-26T03:07:51.276Z,96659.84
2023-02-26T03:09:55.124Z,96662.44
2023-02-26T03:11:57.908Z,96668.47
2023-02-26T03:14:00.847Z,96666.75
2023-02-26T03:16:15.806Z,96669.34
2023-02-26T03:18:26.600Z,96666.91
2023-02-26T03:20:35.138Z,96673.69
2023-02-26T03:22:46.267Z,96670.34
2023-02-26T03:24:52.592Z,96674.63
2023-02-26T03:26:59.445Z,96678.91
2023-02-26T03:29:09.190Z,96682.38
2023-02-26T03:31:18.130Z,96685.00
2023-02-26T03:33:26.136Z,96685.03
2023-02-26T03:35:39.165Z,96690.25
2023-02-26T03:37:46.609Z,96691.13
2023-02-26T03:39:53.136Z,96689.47
2023-02-26T03:42:01.238Z,96691.22
2023-02-26T03:44:09.012Z,96694.63
2023-02-26T03:46:16.764Z,96691.22
2023-02-26T03:48:24.212Z,96689.53
2023-02-26T03:50:33.440Z,96700.69
2023-02-26T03:52:40.112Z,96704.09
2023-02-26T03:54:46.964Z,96696.41
2023-02-26T03:56:50.700Z,96704.97
2023-02-26T03:58:53.401Z,96698.16
2023-02-26T04:01:03.170Z,96702.47
2023-02-26T04:03:11.705Z,96706.75
2023-02-26T04:05:18.906Z,96701.63
2023-02-26T04:07:23.774Z,96711.94
2023-02-26T04:09:26.681Z,96711.09
2023-02-26T04:11:31.425Z,96717.97
2023-02-26T04:13:34.517Z,96709.44
2023-02-26T04:15:37.121Z,96719.72
2023-02-26T04:17:39.740Z,96718.91
2023-02-26T04:19:42.302Z,96719.75
2023-02-26T04:21:44.919Z,96722.34
2023-02-26T04:23:48.948Z,96727.53
2023-02-26T04:25:51.759Z,96724.13
2023-02-26T04:27:54.498Z,96728.47
2023-02-26T04:29:57.095Z,96725.06
2023-02-26T04:32:00.811Z,96725.06
2023-02-26T04:34:03.806Z,96725.91
2023-02-26T04:36:06.920Z,96725.97
2023-02-26T04:38:09.503Z,96728.56
2023-02-26T04:40:14.000Z,96726.03
2023-02-26T04:42:16.570Z,96734.63
2023-02-26T04:44:19.166Z,96732.06
2023-02-26T04:46:21.830Z,96738.03
2023-02-26T04:48:24.493Z,96738.03
2023-02-26T04:50:27.168Z,96735.47
2023-02-26T04:52:29.732Z,96740.59
2023-02-26T04:54:32.386Z,96745.75
2023-02-26T04:56:36.315Z,96738.91
2023-02-26T04:58:39.198Z,96738.94
2023-02-26T05:00:42.033Z,96753.47
2023-02-26T05:02:44.642Z,96738.94
2023-02-26T05:04:47.263Z,96745.75
2023-02-26T05:06:49.890Z,96753.47
2023-02-26T05:08:52.458Z,96750.09
2023-02-26T05:10:55.190Z,96750.09
2023-02-26T05:12:59.092Z,96748.38
2023-02-26T05:15:01.722Z,96753.53
2023-02-26T05:17:04.432Z,96752.63
2023-02-26T05:19:09.483Z,96752.63
2023-02-26T05:21:12.100Z,96757.78
2023-02-26T05:23:14.723Z,96760.34
2023-02-26T05:25:18.701Z,96762.06
2023-02-26T05:27:21.287Z,96756.09
2023-02-26T05:29:25.878Z,96762.94
2023-02-26T05:31:28.723Z,96763.78
2023-02-26T05:33:31.294Z,96770.66
2023-02-26T05:35:34.076Z,96774.97
2023-02-26T05:37:36.866Z,96776.72
2023-02-26T05:39:41.080Z,96775.84
2023-02-26T05:41:43.850Z,96777.56
2023-02-26T05:43:46.459Z,96786.97
2023-02-26T05:45:52.417Z,96787.88
2023-02-26T05:47:54.997Z,96792.13
2023-02-26T05:49:57.590Z,96793.84
2023-02-26T05:52:00.122Z,96797.25
2023-02-26T05:54:02.714Z,96798.13
2023-02-26T05:56:05.878Z,96794.72
2023-02-26T05:58:08.504Z,96802.41
2023-02-26T06:00:12.796Z,96797.31
2023-02-26T06:02:17.106Z,96810.16
2023-02-26T06:04:19.757Z,96814.41
2023-02-26T06:06:22.421Z,96814.41
2023-02-26T06:08:25.052Z,96816.13
2023-02-26T06:10:27.679Z,96819.56
2023-02-26T06:12:30.306Z,96821.28
2023-02-26T06:14:32.919Z,96821.28
2023-02-26T06:16:36.589Z,96833.28
2023-02-26T06:18:40.614Z,96835.00
2023-02-26T06:20:43.194Z,96834.13
2023-02-26T06:22:45.737Z,96832.44
2023-02-26T06:24:48.280Z,96841.00
2023-02-26T06:26:50.832Z,96835.84
2023-02-26T06:28:53.390Z,96841.03
2023-02-26T06:30:56.516Z,96840.19
2023-02-26T06:32:59.097Z,96841.03
2023-02-26T06:35:03.004Z,96844.47
2023-02-26T06:37:05.622Z,96853.84
2023-02-26T06:39:08.654Z,96855.56
2023-02-26T06:41:11.237Z,96856.44
2023-02-26T06:43:13.857Z,96856.44
2023-02-26T06:45:16.786Z,96864.16
2023-02-26T06:47:19.545Z,96869.28
2023-02-26T06:49:22.221Z,96870.16
2023-02-26T06:51:26.130Z,96877.88
2023-02-26T06:53:28.713Z,96874.44
2023-02-26T06:55:31.283Z,96885.56
2023-02-26T06:57:33.901Z,96889.84
2023-02-26T06:59:36.497Z,96886.44
2023-02-26T07:01:39.245Z,96888.13
2023-02-26T07:03:41.844Z,96883.84
2023-02-26T07:05:45.411Z,96890.69
2023-02-26T07:07:49.353Z,96890.69
2023-02-26T07:09:52.188Z,96884.69
2023-02-26T07:11:54.792Z,96894.13
2023-02-26T07:13:57.413Z,96900.09
2023-02-26T07:15:59.961Z,96897.53
2023-02-26T07:18:02.526Z,96895.78
2023-02-26T07:20:06.688Z,96897.53
2023-02-26T07:22:09.243Z,96897.53
2023-02-26T07:24:13.253Z,96906.94
2023-02-26T07:26:17.465Z,96897.50
2023-02-26T07:28:20.630Z,96896.63
2023-02-26T07:30:23.463Z,96894.06
2023-02-26T07:32:26.315Z,96901.75
2023-02-26T07:34:29.303Z,96900.03
2023-02-26T07:36:31.943Z,96903.47
2023-02-26T07:38:34.541Z,96902.59
2023-02-26T07:40:38.453Z,96900.03
2023-02-26T07:42:41.424Z,96906.06
2023-02-26T07:44:44.142Z,96912.03
2023-02-26T07:46:47.014Z,96916.31
2023-02-26T07:48:49.560Z,96917.16
2023-02-26T07:50:53.421Z,96912.84
2023-02-26T07:52:55.982Z,96915.47
2023-02-26T07:54:58.542Z,96913.75
2023-02-26T07:57:02.783Z,96914.59
2023-02-26T07:59:05.352Z,96922.31
2023-02-26T08:01:08.052Z,96918.06
2023-02-26T08:03:10.683Z,96925.78
2023-02-26T08:05:13.292Z,96927.47
2023-02-26T08:07:18.294Z,96922.31
2023-02-26T08:09:20.974Z,96925.75
2023-02-26T08:11:23.655Z,96929.16
2023-02-26T08:13:27.731Z,96927.44
2023-02-26T08:15:30.439Z,96927.50
2023-02-26T08:17:33.134Z,96929.16
2023-02-26T08:19:36.558Z,96925.66
2023-02-26T08:21:39.144Z,96928.25
2023-02-26T08:23:41.754Z,96927.41
2023-02-26T08:25:44.323Z,96922.25
2023-02-26T08:27:46.880Z,96926.59
2023-02-26T08:29:51.199Z,96924.88
2023-02-26T08:31:56.868Z,96927.47
2023-02-26T08:33:59.507Z,96927.50
2023-02-26T08:36:02.160Z,96930.03
2023-02-26T08:38:04.742Z,96928.34
2023-02-26T08:40:09.059Z,96927.50
2023-02-26T08:42:12.352Z,96929.19
2023-02-26T08:44:14.928Z,96935.16
2023-02-26T08:46:18.881Z,96934.31
2023-02-26T08:48:21.987Z,96940.28
2023-02-26T08:50:24.859Z,96948.91
2023-02-26T08:52:27.498Z,96948.03
2023-02-26T08:54:30.054Z,96954.00
2023-02-26T08:56:32.806Z,96953.19
2023-02-26T08:58:35.426Z,96951.44
2023-02-26T09:00:38.125Z,96959.94
2023-02-26T09:02:42.245Z,96956.50
2023-02-26T09:04:44.834Z,96961.66
2023-02-26T09:06:47.422Z,96963.31
2023-02-26T09:08:50.289Z,96961.59
2023-02-26T09:10:52.904Z,96957.34
2023-02-26T09:12:55.582Z,96963.31
2023-02-26T09:14:59.041Z,96968.47
2023-02-26T09:17:01.653Z,96958.16
2023-02-26T09:19:07.117Z,96967.63
2023-02-26T09:21:09.713Z,96971.88
2023-02-26T09:23:13.415Z,96975.28
2023-02-26T09:25:17.440Z,96976.94
2023-02-26T09:27:20.093Z,96988.13
2023-02-26T09:29:22.904Z,96977.81
2023-02-26T09:31:25.661Z,96985.56
2023-02-26T09:33:28.493Z,96984.66
2023-02-26T09:35:32.444Z,96988.97
2023-02-26T09:37:35.120Z,96984.69
2023-02-26T09:39:38.038Z,96983.84
2023-02-26T09:41:44.911Z,96987.25
2023-02-26T09:44:28.727Z,96988.88
2023-02-26T09:46:42.065Z,96985.50
2023-02-26T09:48:46.477Z,96995.81
2023-02-26T09:50:53.903Z,97006.94
2023-02-26T09:53:02.665Z,97008.66
2023-02-26T09:55:12.049Z,97009.50
2023-02-26T09:57:26.458Z,97011.22
2023-02-26T09:59:32.733Z,97013.81
2023-02-26T10:01:43.665Z,97010.34
2023-02-26T10:04:02.013Z,97008.69
2023-02-26T10:06:19.717Z,97000.97
2023-02-26T10:08:29.381Z,97006.09
2023-02-26T10:10:39.095Z,97003.47
2023-02-26T10:12:44.090Z,96994.03
2023-02-26T10:14:51.997Z,96999.09
2023-02-26T10:16:59.205Z,96993.13
2023-02-26T10:19:07.222Z,96996.53
2023-02-26T10:21:18.331Z,96995.63
2023-02-26T10:23:26.122Z,96997.34
2023-02-26T10:25:34.377Z,96993.13
2023-02-26T10:27:49.313Z,96997.44
2023-02-26T10:29:59.776Z,96999.09
2023-02-26T10:32:13.261Z,97006.66
2023-02-26T10:34:21.673Z,97004.75
2023-02-26T10:36:27.366Z,97004.81
2023-02-26T10:38:32.919Z,96998.78
2023-02-26T10:40:39.583Z,97011.72
2023-02-26T10:42:47.751Z,97002.31
2023-02-26T10:45:01.404Z,97004.91
2023-02-26T10:47:13.407Z,97004.91
2023-02-26T10:49:43.662Z,96995.34
2023-02-26T10:51:48.016Z,97000.56
2023-02-26T10:53:55.516Z,97009.13
2023-02-26T10:56:05.291Z,97016.88
2023-02-26T10:58:13.275Z,97011.75
2023-02-26T11:00:20.329Z,97016.94
2023-02-26T11:02:37.045Z,97017.84
2023-02-26T11:04:40.758Z,97022.06
2023-02-26T11:06:50.290Z,97021.28
2023-02-26T11:08:57.351Z,97010.13
2023-02-26T11:11:01.576Z,97017.81
2023-02-26T11:13:04.934Z,97018.66
2023-02-26T11:15:13.388Z,97017.84
2023-02-26T11:17:23.393Z,97021.38
2023-02-26T11:19:29.426Z,97012.78
2023-02-26T11:21:39.863Z,97017.09
2023-02-26T11:23:44.508Z,97019.59
2023-02-26T11:25:55.268Z,97017.00
2023-02-26T11:28:04.543Z,97022.06
2023-02-26T11:30:16.749Z,97022.94
2023-02-26T11:32:21.451Z,97016.06
2023-02-26T11:34:25.392Z,97019.47
2023-02-26T11:36:30.722Z,97021.13
2023-02-26T11:38:34.390Z,97019.44
2023-02-26T11:40:39.805Z,97015.09
2023-02-26T11:42:49.388Z,97017.66
2023-02-26T11:44:52.809Z,97018.44
2023-02-26T11:46:58.276Z,97014.19
2023-02-26T11:49:02.526Z,97024.50
2023-02-26T11:51:06.796Z,97019.22
2023-02-26T11:53:18.959Z,97011.56
2023-02-26T11:55:27.766Z,97016.69
2023-02-26T11:57:32.741Z,97020.94
2023-02-26T11:59:41.806Z,97013.25
2023-02-26T12:01:44.468Z,97020.13
2023-02-26T12:03:51.074Z,97021.91
2023-02-26T12:05:54.247Z,97030.47
2023-02-26T12:07:56.896Z,97020.97
2023-02-26T12:09:59.473Z,97025.25
2023-02-26T12:12:26.944Z,97021.03
2023-02-26T12:14:48.515Z,97027.19
2023-02-26T12:17:02.911Z,97027.97
2023-02-26T12:19:12.275Z,97023.72
2023-02-26T12:21:29.084Z,97018.56
2023-02-26T12:23:51.474Z,97023.66
2023-02-26T12:26:12.967Z,97017.53
2023-02-26T12:28:41.448Z,97023.59
2023-02-26T12:31:01.434Z,97017.44
2023-02-26T12:33:18.108Z,97019.28
2023-02-26T12:35:40.367Z,97019.28
2023-02-26T12:37:53.204Z,97018.47
2023-02-26T12:40:06.449Z,97025.13
2023-02-26T12:42:20.975Z,97014.84
2023-02-26T12:44:52.229Z,97018.28
2023-02-26T12:47:27.246Z,97026.06
2023-02-26T12:49:44.688Z,97032.06
2023-02-26T12:52:05.033Z,97026.09
2023-02-26T12:54:23.568Z,97035.44
2023-02-26T12:56:44.522Z,97031.22
2023-02-26T12:59:02.648Z,97032.00
2023-02-26T13:01:17.599Z,97032.91
2023-02-26T13:03:40.949Z,97025.16
2023-02-26T13:06:03.063Z,97034.44
2023-02-26T13:08:16.589Z,97030.31
2023-02-26T13:10:28.326Z,97038.78
2023-02-26T13:12:39.462Z,97046.56
2023-02-26T13:14:52.428Z,97045.75
2023-02-26T13:17:02.256Z,97042.25
2023-02-26T13:19:14.722Z,97043.97
2023-02-26T13:21:21.945Z,97040.50
2023-02-26T13:23:27.192Z,97038.69
2023-02-26T13:25:38.210Z,97034.34
2023-02-26T13:27:42.254Z,97047.38
2023-02-26T13:29:49.326Z,97036.25
2023-02-26T13:31:56.567Z,97041.31
2023-02-26T13:34:03.610Z,97037.59
2023-02-26T13:36:09.490Z,97047.81
2023-02-26T13:38:20.841Z,97046.16
2023-02-26T13:40:48.983Z,97043.59
2023-02-26T13:43:01.619Z,97046.22
2023-02-26T13:45:22.490Z,97037.44
2023-02-26T13:47:42.735Z,97036.53
2023-02-26T13:49:56.842Z,97036.44
2023-02-26T13:52:00.814Z,97038.09
2023-02-26T13:54:08.937Z,97026.13
2023-02-26T13:56:17.018Z,97028.66
2023-02-26T13:58:35.107Z,97032.97
2023-02-26T14:00:47.123Z,97036.50
2023-02-26T14:02:53.688Z,97034.81
2023-02-26T14:04:59.789Z,97039.16
2023-02-26T14:07:12.640Z,97037.53
2023-02-26T14:09:46.878Z,97045.34
2023-02-26T14:12:01.323Z,97059.84
2023-02-26T14:14:12.434Z,97059.06
2023-02-26T14:16:22.592Z,97057.44
2023-02-26T14:18:37.037Z,97050.41
2023-02-26T14:20:40.704Z,97056.47
2023-02-26T14:22:49.127Z,97051.41
2023-02-26T14:24:55.351Z,97054.56
2023-02-26T14:27:10.551Z,97056.50
2023-02-26T14:29:22.200Z,97055.66
2023-02-26T14:31:27.673Z,97061.66
2023-02-26T14:33:33.352Z,97053.00
2023-02-26T14:35:41.006Z,97058.94
2023-02-26T14:37:49.864Z,97053.03
2023-02-26T14:39:58.680Z,97055.56
2023-02-26T14:42:05.718Z,97060.84
2023-02-26T14:44:15.957Z,97062.38
2023-02-26T14:46:19.525Z,97056.94
2023-02-26T14:48:29.320Z,97061.94
2023-02-26T14:50:44.261Z,97065.47
2023-02-26T14:53:03.613Z,97071.56
2023-02-26T14:55:23.868Z,97084.56
2023-02-26T14:57:36.193Z,97083.03
2023-02-26T14:59:55.926Z,97071.91
2023-02-26T15:02:11.743Z,97079.69
2023-02-26T15:04:32.974Z,97078.91
2023-02-26T15:06:51.647Z,97080.59
2023-02-26T15:09:11.005Z,97084.03
2023-02-26T15:11:37.044Z,97081.28
2023-02-26T15:14:03.336Z,97089.59
2023-02-26T15:16:17.491Z,97090.28
2023-02-26T15:18:36.482Z,97086.50
2023-02-26T15:20:48.625Z,97081.13
2023-02-26T15:23:21.636Z,97087.19
2023-02-26T15:25:30.480Z,97088.78
2023-02-26T15:27:34.722Z,97089.66
2023-02-26T15:29:39.846Z,97098.34
2023-02-26T15:31:44.749Z,97095.84
2023-02-26T15:33:49.329Z,97098.63
2023-02-26T15:35:53.563Z,97093.44
2023-02-26T15:37:58.182Z,97093.47
2023-02-26T15:40:04.746Z,97112.31
2023-02-26T15:42:11.188Z,97115.94
2023-02-26T15:44:18.638Z,97118.59
2023-02-26T15:46:27.410Z,97115.31
2023-02-26T15:48:35.329Z,97128.25
2023-02-26T15:50:42.096Z,97128.38
2023-02-26T15:52:45.106Z,97124.03
2023-02-26T15:54:51.467Z,97137.00
2023-02-26T15:56:54.340Z,97132.66
2023-02-26T15:59:02.466Z,97143.03
2023-02-26T16:01:06.074Z,97143.03
2023-02-26T16:03:10.846Z,97140.44
2023-02-26T16:05:15.288Z,97143.16
2023-02-26T16:07:17.886Z,97140.56
2023-02-26T16:09:26.416Z,97146.53
2023-02-26T16:11:34.107Z,97156.06
2023-02-26T16:13:42.524Z,97163.88
2023-02-26T16:15:48.746Z,97161.28
2023-02-26T16:17:54.425Z,97163.88
2023-02-26T16:20:00.011Z,97162.19
2023-02-26T16:22:07.056Z,97161.38
2023-02-26T16:24:16.010Z,97168.22
2023-02-26T16:26:27.125Z,97164.75
2023-02-26T16:28:35.068Z,97159.63
2023-02-26T16:30:40.402Z,97172.56
2023-02-26T16:32:46.961Z,97172.59
2023-02-26T16:34:52.726Z,97177.75
2023-02-26T16:36:55.681Z,97182.91
2023-02-26T16:39:02.241Z,97178.63
2023-02-26T16:41:10.863Z,97173.47
2023-02-26T16:43:36.368Z,97182.94
2023-02-26T16:45:50.753Z,97194.09
2023-02-26T16:47:57.886Z,97191.53
2023-02-26T16:50:04.463Z,97197.50
2023-02-26T16:52:07.906Z,97201.81
2023-02-26T16:54:18.821Z,97206.16
2023-02-26T16:56:25.289Z,97208.72
2023-02-26T16:58:30.606Z,97207.91
2023-02-26T17:00:34.135Z,97210.47
2023-02-26T17:02:39.511Z,97211.34
2023-02-26T17:04:43.699Z,97213.97
2023-02-26T17:06:47.864Z,97214.81
2023-02-26T17:08:52.830Z,97215.69
2023-02-26T17:11:01.421Z,97220.84
2023-02-26T17:13:13.395Z,97225.13
2023-02-26T17:15:21.014Z,97219.09
2023-02-26T17:17:23.855Z,97219.09
2023-02-26T17:19:26.740Z,97229.38
2023-02-26T17:21:31.502Z,97233.69
2023-02-26T17:23:38.124Z,97234.53
2023-02-26T17:25:43.236Z,97233.66
2023-02-26T17:27:47.565Z,97234.53
2023-02-26T17:29:52.168Z,97243.13
2023-02-26T17:31:54.904Z,97250.00
2023-02-26T17:33:57.570Z,97245.66
2023-02-26T17:36:02.069Z,97256.03
2023-02-26T17:38:06.035Z,97247.47
2023-02-26T17:40:20.265Z,97256.91
2023-02-26T17:42:23.088Z,97263.78
2023-02-26T17:44:26.588Z,97260.38
2023-02-26T17:46:29.281Z,97269.78
2023-02-26T17:48:32.004Z,97268.00
2023-02-26T17:50:43.792Z,97276.63
2023-02-26T17:52:46.277Z,97281.78
2023-02-26T17:54:50.152Z,97283.47
2023-02-26T17:56:52.880Z,97290.34
2023-02-26T17:58:56.232Z,97285.22
2023-02-26T18:00:59.227Z,97292.94
2023-02-26T18:03:01.945Z,97283.53
2023-02-26T18:05:04.808Z,97288.69
2023-02-26T18:07:07.401Z,97283.53
2023-02-26T18:09:12.766Z,97295.53
2023-02-26T18:11:19.867Z,97299.81
2023-02-26T18:13:23.057Z,97294.66
2023-02-26T18:15:26.279Z,97292.91
2023-02-26T18:17:31.080Z,97290.31
2023-02-26T18:19:33.811Z,97293.78
2023-02-26T18:21:36.435Z,97291.25
2023-02-26T18:23:39.177Z,97285.22
2023-02-26T18:25:42.672Z,97290.41
2023-02-26T18:27:50.914Z,97290.41
2023-02-26T18:29:54.515Z,97281.81
2023-02-26T18:31:58.152Z,97290.38
2023-02-26T18:34:02.352Z,97287.81
2023-02-26T18:36:06.043Z,97300.69
2023-02-26T18:38:11.636Z,97294.69
2023-02-26T18:40:18.772Z,97293.00
2023-02-26T18:42:23.104Z,97288.72
2023-02-26T18:44:28.518Z,97286.09
2023-02-26T18:46:31.164Z,97292.97
2023-02-26T18:48:33.790Z,97286.13
2023-02-26T18:50:36.477Z,97293.03
2023-02-26T18:52:39.087Z,97293.00
2023-02-26T18:54:41.889Z,97298.16
2023-02-26T18:56:44.467Z,97292.13
2023-02-26T18:58:47.051Z,97293.00
2023-02-26T19:00:51.463Z,97299.84
2023-02-26T19:02:54.083Z,97294.69
2023-02-26T19:04:56.737Z,97301.56
2023-02-26T19:06:59.370Z,97299.88
2023-02-26T19:09:02.826Z,97301.56
2023-02-26T19:11:06.923Z,97313.56
2023-02-26T19:13:09.487Z,97314.44
2023-02-26T19:15:13.884Z,97308.44
2023-02-26T19:17:17.805Z,97311.88
2023-02-26T19:19:20.356Z,97326.47
2023-02-26T19:21:22.982Z,97324.75
2023-02-26T19:23:25.682Z,97322.16
2023-02-26T19:25:30.341Z,97334.16
2023-02-26T19:27:33.224Z,97326.44
2023-02-26T19:29:36.816Z,97333.31
2023-02-26T19:31:39.635Z,97330.72
2023-02-26T19:33:43.538Z,97337.63
2023-02-26T19:35:46.105Z,97338.47
2023-02-26T19:37:48.993Z,97342.75
2023-02-26T19:39:51.563Z,97345.34
2023-02-26T19:41:55.248Z,97335.91
2023-02-26T19:43:58.585Z,97342.75
2023-02-26T19:46:01.339Z,97351.34
2023-02-26T19:48:04.099Z,97353.88
2023-02-26T19:50:09.623Z,97352.19
2023-02-26T19:52:12.240Z,97364.19
2023-02-26T19:54:14.833Z,97364.19
2023-02-26T19:56:17.406Z,97365.91
2023-02-26T19:58:20.569Z,97372.75
2023-02-26T20:00:23.649Z,97368.47
2023-02-26T20:02:26.615Z,97371.91
2023-02-26T20:04:29.274Z,97373.63
2023-02-26T20:06:33.761Z,97380.47
2023-02-26T20:08:36.406Z,97382.19
2023-02-26T20:10:39.116Z,97397.63
2023-02-26T20:12:41.678Z,97396.78
2023-02-26T20:14:44.288Z,97390.75
2023-02-26T20:16:46.827Z,97396.75
2023-02-26T20:18:49.414Z,97398.50
2023-02-26T20:20:52.856Z,97397.63
2023-02-26T20:22:56.737Z,97404.47
2023-02-26T20:24:59.323Z,97404.47
2023-02-26T20:27:01.944Z,97407.91
2023-02-26T20:29:04.926Z,97410.47
2023-02-26T20:31:08.173Z,97401.03
2023-02-26T20:33:10.966Z,97401.91
2023-02-26T20:35:13.709Z,97410.47
2023-02-26T20:37:16.284Z,97416.47
2023-02-26T20:39:21.050Z,97425.03
2023-02-26T20:41:23.658Z,97425.03
2023-02-26T20:43:26.448Z,97422.47
2023-02-26T20:45:29.910Z,97421.59
2023-02-26T20:47:32.514Z,97420.75
2023-02-26T20:49:35.155Z,97425.88
2023-02-26T20:51:37.978Z,97436.16
2023-02-26T20:53:40.951Z,97419.91
2023-02-26T20:55:44.932Z,97437.88
2023-02-26T20:57:48.326Z,97427.59
2023-02-26T20:59:50.908Z,97434.47
2023-02-26T21:01:53.947Z,97432.75
2023-02-26T21:03:56.539Z,97443.00
2023-02-26T21:05:59.104Z,97449.00
2023-02-26T21:08:02.186Z,97455.88
2023-02-26T21:10:05.263Z,97446.41
2023-02-26T21:12:09.486Z,97443.88
2023-02-26T21:14:12.252Z,97447.28
2023-02-26T21:16:14.889Z,97447.31
2023-02-26T21:18:17.481Z,97450.75
2023-02-26T21:20:22.189Z,97450.72
2023-02-26T21:22:25.016Z,97443.88
2023-02-26T21:24:27.663Z,97443.03
2023-02-26T21:26:30.340Z,97444.72
2023-02-26T21:28:34.378Z,97439.56
2023-02-26T21:30:37.279Z,97442.13
2023-02-26T21:32:40.711Z,97451.53
2023-02-26T21:34:43.339Z,97448.16
2023-02-26T21:36:45.944Z,97446.41
2023-02-26T21:38:48.492Z,97445.53
2023-02-26T21:40:53.212Z,97438.69
2023-02-26T21:42:55.798Z,97434.41
2023-02-26T21:44:59.767Z,97436.97
2023-02-26T21:47:03.625Z,97436.13
2023-02-26T21:49:06.242Z,97437.00
2023-02-26T21:51:08.979Z,97438.69
2023-02-26T21:53:11.564Z,97437.84
2023-02-26T21:55:14.537Z,97442.09
2023-02-26T21:57:17.143Z,97436.09
2023-02-26T21:59:20.118Z,97438.69
2023-02-26T22:01:24.099Z,97434.38
2023-02-26T22:03:26.786Z,97430.09
2023-02-26T22:05:29.361Z,97428.38
2023-02-26T22:07:32.038Z,97429.22
2023-02-26T22:09:34.628Z,97427.50
2023-02-26T22:11:37.545Z,97431.81
2023-02-26T22:13:40.100Z,97425.78
2023-02-26T22:15:42.957Z,97424.09
2023-02-26T22:17:46.881Z,97425.84
2023-02-26T22:19:49.415Z,97423.22
2023-02-26T22:21:51.977Z,97428.38
2023-02-26T22:23:54.589Z,97423.22
2023-02-26T22:25:57.149Z,97432.63
2023-02-26T22:27:59.720Z,97427.50
2023-02-26T22:30:02.285Z,97430.91
2023-02-26T22:32:04.952Z,97428.31
2023-02-26T22:34:08.886Z,97433.47
2023-02-26T22:36:11.567Z,97434.28
2023-02-26T22:38:14.381Z,97433.50
2023-02-26T22:40:17.051Z,97447.19
2023-02-26T22:42:20.220Z,97443.78
2023-02-26T22:44:22.908Z,97447.16
2023-02-26T22:46:28.315Z,97449.69
2023-02-26T22:48:31.024Z,97442.88
2023-02-26T22:50:34.978Z,97441.16
2023-02-26T22:52:37.543Z,97445.44
2023-02-26T22:54:42.266Z,97445.38
2023-02-26T22:56:44.824Z,97444.56
2023-02-26T22:58:47.375Z,97439.44
2023-02-26T23:00:49.957Z,97435.97
2023-02-26T23:02:52.563Z,97442.78
2023-02-26T23:04:55.178Z,97443.63
2023-02-26T23:06:59.368Z,97444.50
2023-02-26T23:09:01.955Z,97451.34
2023-02-26T23:11:05.315Z,97446.16
2023-02-26T23:13:07.865Z,97440.19
2023-02-26T23:15:11.388Z,97447.00
2023-02-26T23:17:16.852Z,97441.00
2023-02-26T23:19:19.851Z,97453.00
2023-02-26T23:21:22.427Z,97445.25
2023-02-26T23:23:26.363Z,97450.44
2023-02-26T23:25:29.032Z,97458.09
2023-02-26T23:27:32.338Z,97452.97
2023-02-26T23:29:34.912Z,97459.78
2023-02-26T23:31:37.713Z,97453.81
2023-02-26T23:33:40.427Z,97456.31
2023-02-26T23:35:43.012Z,97454.66
2023-02-26T23:37:45.778Z,97452.09
2023-02-26T23:39:49.727Z,97450.38
2023-02-26T23:41:52.338Z,97444.31
2023-02-26T23:43:54.986Z,97447.69
2023-02-26T23:45:57.608Z,97447.69
2023-02-26T23:48:00.241Z,97447.75
2023-02-26T23:50:02.905Z,97451.13
2023-02-26T23:52:05.712Z,97459.72
2023-02-26T23:54:08.263Z,97453.72
2023-02-26T23:56:12.129Z,97449.38
2023-02-26T23:58:14.737Z,97457.13
